Terminal Aerodrome Forecast
Issued by NWS Wakefield, VA

Home | Current Version | Previous Version | Text Only | Print | Product List | Glossary On
Versions: 1 2 3 4 5 6 7 8 9 10 11 12 13 14 15 16 17 18 19 20 21 22 23 24 25 26 27
661
FTUS41 KAKQ 291725
TAFORF
TAF
KORF 291725Z 2918/3018 04008KT 5SM BR OVC006
     FM300200 05005KT P6SM OVC004
     FM300400 03008KT 2SM -DZ BR OVC003
     FM301500 05010KT 5SM BR OVC006=

USA.gov is the U.S. government's official web portal to all federal, state and local government web resources and services.